sensor_id;sensor_type;location;lat;lon;timestamp;pressure;altitude;pressure_sealevel;temperature;humidity
80938;BME280;70395;51.382;7.074;2023-10-19T00:00:37;98272.25;;;14.27;65.62
80938;BME280;70395;51.382;7.074;2023-10-19T00:03:07;98267.38;;;14.36;65.25
80938;BME280;70395;51.382;7.074;2023-10-19T00:05:33;98255.06;;;14.47;64.94
80938;BME280;70395;51.382;7.074;2023-10-19T00:08:04;98258.72;;;14.53;65.00
80938;BME280;70395;51.382;7.074;2023-10-19T00:10:54;98244.38;;;14.59;65.02
80938;BME280;70395;51.382;7.074;2023-10-19T00:13:49;98253.41;;;14.65;65.26
80938;BME280;70395;51.382;7.074;2023-10-19T00:16:16;98238.47;;;14.69;64.90
80938;BME280;70395;51.382;7.074;2023-10-19T00:18:45;98243.63;;;14.71;65.29
80938;BME280;70395;51.382;7.074;2023-10-19T00:21:15;98233.44;;;14.73;65.42
80938;BME280;70395;51.382;7.074;2023-10-19T00:23:54;98244.81;;;14.75;65.69
80938;BME280;70395;51.382;7.074;2023-10-19T00:26:27;98234.19;;;14.80;66.04
80938;BME280;70395;51.382;7.074;2023-10-19T00:28:56;98230.44;;;14.81;66.35
80938;BME280;70395;51.382;7.074;2023-10-19T00:31:24;98240.16;;;14.82;65.99
80938;BME280;70395;51.382;7.074;2023-10-19T00:33:53;98236.66;;;14.82;66.78
80938;BME280;70395;51.382;7.074;2023-10-19T00:36:20;98233.34;;;14.80;66.88
80938;BME280;70395;51.382;7.074;2023-10-19T00:38:48;98227.34;;;14.78;66.57
80938;BME280;70395;51.382;7.074;2023-10-19T00:41:15;98236.50;;;14.77;66.38
80938;BME280;70395;51.382;7.074;2023-10-19T00:43:55;98232.16;;;14.75;66.44
80938;BME280;70395;51.382;7.074;2023-10-19T00:46:38;98223.84;;;14.77;66.91
80938;BME280;70395;51.382;7.074;2023-10-19T00:49:07;98221.53;;;14.81;66.74
80938;BME280;70395;51.382;7.074;2023-10-19T00:51:49;98228.56;;;14.82;66.76
80938;BME280;70395;51.382;7.074;2023-10-19T00:54:34;98227.31;;;14.84;67.15
80938;BME280;70395;51.382;7.074;2023-10-19T00:57:12;98219.00;;;14.86;67.15
80938;BME280;70395;51.382;7.074;2023-10-19T00:59:41;98215.69;;;14.84;67.60
80938;BME280;70395;51.382;7.074;2023-10-19T01:02:30;98219.41;;;14.83;67.48
80938;BME280;70395;51.382;7.074;2023-10-19T01:04:57;98214.84;;;14.83;67.08
80938;BME280;70395;51.382;7.074;2023-10-19T01:07:27;98214.03;;;14.83;67.34
80938;BME280;70395;51.382;7.074;2023-10-19T01:10:03;98228.09;;;14.85;67.61
80938;BME280;70395;51.382;7.074;2023-10-19T01:12:33;98216.66;;;14.90;67.98
80938;BME280;70395;51.382;7.074;2023-10-19T01:17:51;98220.78;;;14.92;67.78
80938;BME280;70395;51.382;7.074;2023-10-19T01:20:21;98230.91;;;14.97;68.64
80938;BME280;70395;51.382;7.074;2023-10-19T01:25:44;98233.06;;;15.07;68.10
80938;BME280;70395;51.382;7.074;2023-10-19T01:28:13;98229.25;;;15.15;67.54
80938;BME280;70395;51.382;7.074;2023-10-19T01:30:45;98236.31;;;15.16;67.83
80938;BME280;70395;51.382;7.074;2023-10-19T01:33:12;98227.53;;;15.20;67.97
80938;BME280;70395;51.382;7.074;2023-10-19T01:35:45;98238.91;;;15.23;67.50
80938;BME280;70395;51.382;7.074;2023-10-19T01:38:30;98222.47;;;15.24;67.60
80938;BME280;70395;51.382;7.074;2023-10-19T01:41:04;98228.94;;;15.23;67.48
80938;BME280;70395;51.382;7.074;2023-10-19T01:43:41;98229.28;;;15.27;67.70
80938;BME280;70395;51.382;7.074;2023-10-19T01:46:10;98223.91;;;15.27;67.36
80938;BME280;70395;51.382;7.074;2023-10-19T01:48:43;98230.72;;;15.29;66.88
80938;BME280;70395;51.382;7.074;2023-10-19T01:51:12;98236.50;;;15.33;67.03
80938;BME280;70395;51.382;7.074;2023-10-19T01:53:40;98228.75;;;15.37;67.27
80938;BME280;70395;51.382;7.074;2023-10-19T01:56:14;98221.47;;;15.37;67.19
80938;BME280;70395;51.382;7.074;2023-10-19T01:58:43;98224.78;;;15.39;67.25
80938;BME280;70395;51.382;7.074;2023-10-19T02:01:12;98225.94;;;15.43;67.26
80938;BME280;70395;51.382;7.074;2023-10-19T02:03:43;98231.16;;;15.45;66.65
80938;BME280;70395;51.382;7.074;2023-10-19T02:06:14;98228.00;;;15.48;67.14
80938;BME280;70395;51.382;7.074;2023-10-19T02:08:55;98222.94;;;15.52;66.65
80938;BME280;70395;51.382;7.074;2023-10-19T02:11:26;98215.81;;;15.58;67.03
80938;BME280;70395;51.382;7.074;2023-10-19T02:13:56;98212.41;;;15.62;66.67
80938;BME280;70395;51.382;7.074;2023-10-19T02:16:27;98222.75;;;15.65;66.61
80938;BME280;70395;51.382;7.074;2023-10-19T02:18:56;98220.41;;;15.69;66.81
80938;BME280;70395;51.382;7.074;2023-10-19T02:21:22;98214.75;;;15.71;66.30
80938;BME280;70395;51.382;7.074;2023-10-19T02:23:49;98216.56;;;15.77;66.25
80938;BME280;70395;51.382;7.074;2023-10-19T02:26:19;98212.13;;;15.83;66.72
80938;BME280;70395;51.382;7.074;2023-10-19T02:28:56;98208.72;;;15.87;66.53
80938;BME280;70395;51.382;7.074;2023-10-19T02:31:22;98198.00;;;15.93;66.16
80938;BME280;70395;51.382;7.074;2023-10-19T02:33:51;98216.00;;;15.99;66.47
80938;BME280;70395;51.382;7.074;2023-10-19T02:36:20;98209.69;;;16.05;66.36
80938;BME280;70395;51.382;7.074;2023-10-19T02:38:46;98206.66;;;16.14;66.06
80938;BME280;70395;51.382;7.074;2023-10-19T02:41:18;98204.06;;;16.19;65.65
80938;BME280;70395;51.382;7.074;2023-10-19T02:43:47;98194.16;;;16.25;65.73
80938;BME280;70395;51.382;7.074;2023-10-19T02:46:21;98198.66;;;16.31;65.87
80938;BME280;70395;51.382;7.074;2023-10-19T02:48:49;98202.31;;;16.37;65.71
80938;BME280;70395;51.382;7.074;2023-10-19T02:51:15;98195.94;;;16.43;65.37
80938;BME280;70395;51.382;7.074;2023-10-19T02:53:41;98201.00;;;16.51;65.39
80938;BME280;70395;51.382;7.074;2023-10-19T02:56:13;98199.78;;;16.59;64.64
80938;BME280;70395;51.382;7.074;2023-10-19T02:58:44;98195.91;;;16.67;64.76
80938;BME280;70395;51.382;7.074;2023-10-19T03:01:21;98199.56;;;16.73;64.29
80938;BME280;70395;51.382;7.074;2023-10-19T03:03:57;98201.66;;;16.83;64.74
80938;BME280;70395;51.382;7.074;2023-10-19T03:06:30;98193.63;;;16.88;64.27
80938;BME280;70395;51.382;7.074;2023-10-19T03:09:03;98192.44;;;16.96;64.27
80938;BME280;70395;51.382;7.074;2023-10-19T03:11:48;98198.19;;;16.99;63.94
80938;BME280;70395;51.382;7.074;2023-10-19T03:14:18;98201.25;;;17.03;64.26
80938;BME280;70395;51.382;7.074;2023-10-19T03:16:44;98196.63;;;17.04;64.39
80938;BME280;70395;51.382;7.074;2023-10-19T03:19:11;98194.03;;;17.09;64.23
80938;BME280;70395;51.382;7.074;2023-10-19T03:21:39;98189.19;;;17.11;64.26
80938;BME280;70395;51.382;7.074;2023-10-19T03:24:19;98187.56;;;17.10;64.03
80938;BME280;70395;51.382;7.074;2023-10-19T03:27:13;98186.38;;;17.06;63.88
80938;BME280;70395;51.382;7.074;2023-10-19T03:29:51;98193.59;;;17.00;64.28
80938;BME280;70395;51.382;7.074;2023-10-19T03:32:39;98193.25;;;16.96;63.71
80938;BME280;70395;51.382;7.074;2023-10-19T03:35:06;98182.66;;;16.95;63.92
80938;BME280;70395;51.382;7.074;2023-10-19T03:37:32;98182.66;;;16.95;63.86
80938;BME280;70395;51.382;7.074;2023-10-19T03:40:01;98180.78;;;16.95;64.24
80938;BME280;70395;51.382;7.074;2023-10-19T03:42:33;98171.00;;;16.94;63.65
80938;BME280;70395;51.382;7.074;2023-10-19T03:44:59;98169.38;;;16.93;63.84
80938;BME280;70395;51.382;7.074;2023-10-19T03:47:27;98169.97;;;16.95;64.05
80938;BME280;70395;51.382;7.074;2023-10-19T03:50:04;98173.25;;;16.97;63.36
80938;BME280;70395;51.382;7.074;2023-10-19T03:52:36;98168.66;;;16.98;63.63
80938;BME280;70395;51.382;7.074;2023-10-19T03:55:06;98172.78;;;17.00;63.26
80938;BME280;70395;51.382;7.074;2023-10-19T03:57:37;98163.56;;;17.02;63.71
80938;BME280;70395;51.382;7.074;2023-10-19T04:00:08;98165.22;;;17.03;63.39
80938;BME280;70395;51.382;7.074;2023-10-19T04:02:41;98162.28;;;17.04;63.20
80938;BME280;70395;51.382;7.074;2023-10-19T04:05:08;98168.03;;;17.08;63.23
80938;BME280;70395;51.382;7.074;2023-10-19T04:07:40;98163.19;;;17.10;63.01
80938;BME280;70395;51.382;7.074;2023-10-19T04:10:07;98174.59;;;17.12;62.89
80938;BME280;70395;51.382;7.074;2023-10-19T04:12:38;98167.31;;;17.13;63.02
80938;BME280;70395;51.382;7.074;2023-10-19T04:15:08;98153.06;;;17.17;63.17
80938;BME280;70395;51.382;7.074;2023-10-19T04:17:46;98159.31;;;17.18;63.18
80938;BME280;70395;51.382;7.074;2023-10-19T04:20:17;98161.28;;;17.22;63.27
80938;BME280;70395;51.382;7.074;2023-10-19T04:22:47;98155.38;;;17.26;62.78
80938;BME280;70395;51.382;7.074;2023-10-19T04:25:14;98145.94;;;17.28;63.01
80938;BME280;70395;51.382;7.074;2023-10-19T04:27:43;98147.84;;;17.28;62.72
80938;BME280;70395;51.382;7.074;2023-10-19T04:30:10;98133.97;;;17.24;62.98
80938;BME280;70395;51.382;7.074;2023-10-19T04:32:46;98137.66;;;17.18;62.62
80938;BME280;70395;51.382;7.074;2023-10-19T04:35:15;98152.81;;;17.19;62.87
80938;BME280;70395;51.382;7.074;2023-10-19T04:37:53;98146.00;;;17.16;63.13
80938;BME280;70395;51.382;7.074;2023-10-19T04:40:20;98153.91;;;17.18;63.23
80938;BME280;70395;51.382;7.074;2023-10-19T04:42:48;98146.56;;;17.18;62.86
80938;BME280;70395;51.382;7.074;2023-10-19T04:45:14;98145.53;;;17.19;63.39
80938;BME280;70395;51.382;7.074;2023-10-19T04:47:40;98145.53;;;17.19;62.73
80938;BME280;70395;51.382;7.074;2023-10-19T04:50:07;98141.50;;;17.22;62.87
80938;BME280;70395;51.382;7.074;2023-10-19T04:52:33;98138.56;;;17.24;62.78
80938;BME280;70395;51.382;7.074;2023-10-19T04:55:00;98142.91;;;17.25;63.08
80938;BME280;70395;51.382;7.074;2023-10-19T04:57:26;98132.91;;;17.25;62.60
80938;BME280;70395;51.382;7.074;2023-10-19T04:59:52;98140.78;;;17.27;62.82
80938;BME280;70395;51.382;7.074;2023-10-19T05:02:18;98140.53;;;17.28;63.00
80938;BME280;70395;51.382;7.074;2023-10-19T05:04:44;98138.38;;;17.30;62.78
80938;BME280;70395;51.382;7.074;2023-10-19T05:07:13;98138.16;;;17.32;62.96
80938;BME280;70395;51.382;7.074;2023-10-19T05:09:44;98140.31;;;17.30;62.47
80938;BME280;70395;51.382;7.074;2023-10-19T05:12:11;98146.19;;;17.27;62.60
80938;BME280;70395;51.382;7.074;2023-10-19T05:14:41;98146.66;;;17.24;62.94
80938;BME280;70395;51.382;7.074;2023-10-19T05:17:11;98143.38;;;17.21;62.72
80938;BME280;70395;51.382;7.074;2023-10-19T05:19:39;98153.41;;;17.21;62.52
80938;BME280;70395;51.382;7.074;2023-10-19T05:22:08;98159.63;;;17.21;62.86
80938;BME280;70395;51.382;7.074;2023-10-19T05:24:35;98152.09;;;17.24;62.89
80938;BME280;70395;51.382;7.074;2023-10-19T05:27:02;98143.97;;;17.24;62.81
80938;BME280;70395;51.382;7.074;2023-10-19T05:29:31;98155.06;;;17.22;62.71
80938;BME280;70395;51.382;7.074;2023-10-19T05:31:57;98147.97;;;17.21;62.57
80938;BME280;70395;51.382;7.074;2023-10-19T05:34:26;98147.41;;;17.19;62.76
80938;BME280;70395;51.382;7.074;2023-10-19T05:36:52;98137.66;;;17.18;62.94
80938;BME280;70395;51.382;7.074;2023-10-19T05:39:20;98148.72;;;17.16;62.64
80938;BME280;70395;51.382;7.074;2023-10-19T05:41:46;98144.38;;;17.15;62.62
80938;BME280;70395;51.382;7.074;2023-10-19T05:44:12;98153.28;;;17.16;62.80
80938;BME280;70395;51.382;7.074;2023-10-19T05:46:38;98155.41;;;17.14;62.79
80938;BME280;70395;51.382;7.074;2023-10-19T05:49:06;98153.78;;;17.13;62.80
80938;BME280;70395;51.382;7.074;2023-10-19T05:51:32;98151.28;;;17.11;62.85
80938;BME280;70395;51.382;7.074;2023-10-19T05:53:58;98161.06;;;17.12;63.07
80938;BME280;70395;51.382;7.074;2023-10-19T05:56:34;98160.25;;;17.11;62.96
80938;BME280;70395;51.382;7.074;2023-10-19T05:59:00;98151.88;;;17.13;62.70
80938;BME280;70395;51.382;7.074;2023-10-19T06:01:26;98163.91;;;17.17;63.08
80938;BME280;70395;51.382;7.074;2023-10-19T06:03:52;98166.34;;;17.19;62.69
80938;BME280;70395;51.382;7.074;2023-10-19T06:06:19;98163.66;;;17.19;62.85
80938;BME280;70395;51.382;7.074;2023-10-19T06:08:46;98176.13;;;17.20;62.50
80938;BME280;70395;51.382;7.074;2023-10-19T06:11:12;98168.50;;;17.17;63.12
80938;BME280;70395;51.382;7.074;2023-10-19T06:13:38;98178.72;;;17.15;63.13
80938;BME280;70395;51.382;7.074;2023-10-19T06:16:04;98178.94;;;17.13;62.75
80938;BME280;70395;51.382;7.074;2023-10-19T06:18:30;98182.72;;;17.12;63.09
80938;BME280;70395;51.382;7.074;2023-10-19T06:20:56;98183.44;;;17.07;63.18
80938;BME280;70395;51.382;7.074;2023-10-19T06:23:22;98191.22;;;17.04;63.19
80938;BME280;70395;51.382;7.074;2023-10-19T06:25:47;98189.25;;;16.99;63.36
80938;BME280;70395;51.382;7.074;2023-10-19T06:28:14;98189.50;;;16.97;63.05
80938;BME280;70395;51.382;7.074;2023-10-19T06:30:40;98193.03;;;16.98;63.12
80938;BME280;70395;51.382;7.074;2023-10-19T06:33:06;98197.34;;;16.99;63.57
80938;BME280;70395;51.382;7.074;2023-10-19T06:35:33;98190.53;;;16.96;63.72
80938;BME280;70395;51.382;7.074;2023-10-19T06:38:00;98196.44;;;16.93;63.72
80938;BME280;70395;51.382;7.074;2023-10-19T06:40:27;98197.50;;;16.92;63.47
80938;BME280;70395;51.382;7.074;2023-10-19T06:42:57;98199.63;;;16.90;63.77
80938;BME280;70395;51.382;7.074;2023-10-19T06:45:24;98202.09;;;16.92;63.93
80938;BME280;70395;51.382;7.074;2023-10-19T06:47:52;98212.91;;;16.92;63.69
80938;BME280;70395;51.382;7.074;2023-10-19T06:50:20;98209.16;;;16.93;63.59
80938;BME280;70395;51.382;7.074;2023-10-19T06:52:47;98211.16;;;16.97;64.11
80938;BME280;70395;51.382;7.074;2023-10-19T06:55:18;98208.75;;;17.01;63.78
80938;BME280;70395;51.382;7.074;2023-10-19T06:57:53;98213.72;;;17.04;63.42
80938;BME280;70395;51.382;7.074;2023-10-19T07:00:22;98217.34;;;17.10;63.43
80938;BME280;70395;51.382;7.074;2023-10-19T07:02:54;98208.97;;;17.11;63.50
80938;BME280;70395;51.382;7.074;2023-10-19T07:05:22;98213.09;;;17.14;63.44
80938;BME280;70395;51.382;7.074;2023-10-19T07:07:50;98219.13;;;17.16;63.79
80938;BME280;70395;51.382;7.074;2023-10-19T07:10:19;98217.59;;;17.20;63.41
80938;BME280;70395;51.382;7.074;2023-10-19T07:12:47;98211.44;;;17.25;62.94
80938;BME280;70395;51.382;7.074;2023-10-19T07:15:14;98210.94;;;17.28;63.29
80938;BME280;70395;51.382;7.074;2023-10-19T07:17:43;98214.22;;;17.30;63.30
80938;BME280;70395;51.382;7.074;2023-10-19T07:20:11;98210.81;;;17.35;62.95
80938;BME280;70395;51.382;7.074;2023-10-19T07:22:58;98213.03;;;17.38;63.33
80938;BME280;70395;51.382;7.074;2023-10-19T07:25:46;98216.09;;;17.42;63.46
80938;BME280;70395;51.382;7.074;2023-10-19T07:28:15;98216.41;;;17.45;63.24
80938;BME280;70395;51.382;7.074;2023-10-19T07:30:42;98215.66;;;17.50;63.27
80938;BME280;70395;51.382;7.074;2023-10-19T07:33:10;98221.44;;;17.54;63.14
80938;BME280;70395;51.382;7.074;2023-10-19T07:35:37;98225.31;;;17.58;63.07
80938;BME280;70395;51.382;7.074;2023-10-19T07:38:05;98227.53;;;17.61;63.07
80938;BME280;70395;51.382;7.074;2023-10-19T07:40:34;98232.47;;;17.64;62.71
80938;BME280;70395;51.382;7.074;2023-10-19T07:43:01;98230.34;;;17.66;62.70
80938;BME280;70395;51.382;7.074;2023-10-19T07:45:27;98231.97;;;17.67;63.15
80938;BME280;70395;51.382;7.074;2023-10-19T07:47:53;98231.16;;;17.67;63.32
80938;BME280;70395;51.382;7.074;2023-10-19T07:50:19;98225.22;;;17.70;63.38
80938;BME280;70395;51.382;7.074;2023-10-19T07:52:47;98230.19;;;17.73;62.71
80938;BME280;70395;51.382;7.074;2023-10-19T07:55:16;98225.31;;;17.75;63.12
80938;BME280;70395;51.382;7.074;2023-10-19T07:57:43;98224.38;;;17.82;62.99
80938;BME280;70395;51.382;7.074;2023-10-19T08:00:11;98218.22;;;17.86;63.25
80938;BME280;70395;51.382;7.074;2023-10-19T08:02:40;98218.53;;;17.90;62.91
80938;BME280;70395;51.382;7.074;2023-10-19T08:05:08;98224.28;;;17.94;62.75
80938;BME280;70395;51.382;7.074;2023-10-19T08:07:34;98223.78;;;17.97;62.73
80938;BME280;70395;51.382;7.074;2023-10-19T08:10:02;98216.81;;;18.01;62.98
80938;BME280;70395;51.382;7.074;2023-10-19T08:12:31;98218.53;;;18.07;62.87
80938;BME280;70395;51.382;7.074;2023-10-19T08:14:58;98221.88;;;18.15;62.67
80938;BME280;70395;51.382;7.074;2023-10-19T08:17:25;98225.75;;;18.19;62.82
80938;BME280;70395;51.382;7.074;2023-10-19T08:19:51;98214.22;;;18.23;62.79
80938;BME280;70395;51.382;7.074;2023-10-19T08:22:16;98218.88;;;18.28;62.79
80938;BME280;70395;51.382;7.074;2023-10-19T08:24:43;98225.72;;;18.31;62.34
80938;BME280;70395;51.382;7.074;2023-10-19T08:27:09;98223.31;;;18.34;62.44
80938;BME280;70395;51.382;7.074;2023-10-19T08:29:39;98227.97;;;18.39;62.23
80938;BME280;70395;51.382;7.074;2023-10-19T08:32:05;98223.19;;;18.46;62.18
80938;BME280;70395;51.382;7.074;2023-10-19T08:34:35;98210.53;;;18.52;62.25
80938;BME280;70395;51.382;7.074;2023-10-19T08:37:02;98218.84;;;18.63;62.07
80938;BME280;70395;51.382;7.074;2023-10-19T08:39:32;98212.13;;;18.71;61.92
80938;BME280;70395;51.382;7.074;2023-10-19T08:42:05;98216.88;;;18.80;62.14
80938;BME280;70395;51.382;7.074;2023-10-19T08:44:32;98210.75;;;18.90;61.85
80938;BME280;70395;51.382;7.074;2023-10-19T08:46:58;98208.28;;;19.11;61.34
80938;BME280;70395;51.382;7.074;2023-10-19T08:49:28;98214.34;;;19.41;61.16
80938;BME280;70395;51.382;7.074;2023-10-19T08:51:58;98211.56;;;19.64;60.70
80938;BME280;70395;51.382;7.074;2023-10-19T08:54:26;98201.13;;;19.83;60.28
80938;BME280;70395;51.382;7.074;2023-10-19T08:56:53;98198.00;;;20.02;60.10
80938;BME280;70395;51.382;7.074;2023-10-19T08:59:21;98196.81;;;20.20;59.72
80938;BME280;70395;51.382;7.074;2023-10-19T09:01:47;98200.41;;;20.31;59.88
80938;BME280;70395;51.382;7.074;2023-10-19T09:04:14;98196.38;;;20.39;59.72
80938;BME280;70395;51.382;7.074;2023-10-19T09:06:42;98204.28;;;20.41;58.99
80938;BME280;70395;51.382;7.074;2023-10-19T09:09:17;98198.81;;;20.35;59.11
80938;BME280;70395;51.382;7.074;2023-10-19T09:11:48;98194.19;;;20.36;59.41
80938;BME280;70395;51.382;7.074;2023-10-19T09:14:15;98196.38;;;20.39;58.96
80938;BME280;70395;51.382;7.074;2023-10-19T09:16:56;98192.81;;;20.33;59.02
80938;BME280;70395;51.382;7.074;2023-10-19T09:19:44;98197.41;;;20.28;59.22
80938;BME280;70395;51.382;7.074;2023-10-19T09:22:13;98188.13;;;20.23;59.17
80938;BME280;70395;51.382;7.074;2023-10-19T09:24:49;98191.91;;;20.17;58.97
80938;BME280;70395;51.382;7.074;2023-10-19T09:27:19;98196.78;;;20.15;59.28
80938;BME280;70395;51.382;7.074;2023-10-19T09:29:47;98199.25;;;20.17;59.03
80938;BME280;70395;51.382;7.074;2023-10-19T09:32:13;98193.53;;;20.18;58.88
80938;BME280;70395;51.382;7.074;2023-10-19T09:34:40;98190.00;;;20.18;59.25
80938;BME280;70395;51.382;7.074;2023-10-19T09:37:10;98177.28;;;20.29;58.67
80938;BME280;70395;51.382;7.074;2023-10-19T09:39:37;98172.19;;;20.43;58.73
80938;BME280;70395;51.382;7.074;2023-10-19T09:42:08;98178.50;;;20.54;58.58
80938;BME280;70395;51.382;7.074;2023-10-19T09:44:43;98180.47;;;20.64;58.17
80938;BME280;70395;51.382;7.074;2023-10-19T09:47:22;98181.53;;;20.63;58.39
80938;BME280;70395;51.382;7.074;2023-10-19T09:49:50;98173.94;;;20.70;58.25
80938;BME280;70395;51.382;7.074;2023-10-19T09:52:16;98177.78;;;20.79;57.92
80938;BME280;70395;51.382;7.074;2023-10-19T09:55:03;98176.47;;;20.92;57.88
80938;BME280;70395;51.382;7.074;2023-10-19T10:00:37;98185.56;;;21.03;57.42
80938;BME280;70395;51.382;7.074;2023-10-19T10:03:04;98185.81;;;21.02;57.26
80938;BME280;70395;51.382;7.074;2023-10-19T10:10:48;98178.75;;;22.58;54.98
80938;BME280;70395;51.382;7.074;2023-10-19T10:15:55;98172.41;;;25.47;50.14
80938;BME280;70395;51.382;7.074;2023-10-19T10:18:24;98161.72;;;26.74;47.31
80938;BME280;70395;51.382;7.074;2023-10-19T10:21:14;98173.22;;;27.64;46.03
80938;BME280;70395;51.382;7.074;2023-10-19T10:23:53;98164.97;;;28.51;43.77
80938;BME280;70395;51.382;7.074;2023-10-19T10:26:31;98163.19;;;29.23;42.95
80938;BME280;70395;51.382;7.074;2023-10-19T10:29:21;98164.69;;;29.29;41.58
80938;BME280;70395;51.382;7.074;2023-10-19T10:31:50;98173.56;;;29.08;41.62
80938;BME280;70395;51.382;7.074;2023-10-19T10:37:05;98162.00;;;28.88;40.86
80938;BME280;70395;51.382;7.074;2023-10-19T10:39:34;98160.47;;;28.64;41.21
80938;BME280;70395;51.382;7.074;2023-10-19T10:42:06;98158.06;;;28.72;40.76
80938;BME280;70395;51.382;7.074;2023-10-19T10:44:44;98151.44;;;28.90;40.60
80938;BME280;70395;51.382;7.074;2023-10-19T10:47:21;98151.16;;;28.92;40.65
80938;BME280;70395;51.382;7.074;2023-10-19T10:49:59;98148.19;;;28.71;40.22
80938;BME280;70395;51.382;7.074;2023-10-19T10:52:36;98153.66;;;28.53;40.44
80938;BME280;70395;51.382;7.074;2023-10-19T10:55:13;98154.31;;;28.27;40.98
80938;BME280;70395;51.382;7.074;2023-10-19T10:57:42;98159.34;;;27.93;41.09
80938;BME280;70395;51.382;7.074;2023-10-19T11:00:13;98150.47;;;27.50;41.33
80938;BME280;70395;51.382;7.074;2023-10-19T11:02:58;98156.69;;;27.04;42.05
80938;BME280;70395;51.382;7.074;2023-10-19T11:05:25;98150.84;;;26.69;42.65
80938;BME280;70395;51.382;7.074;2023-10-19T11:08:14;98151.13;;;26.39;43.16
80938;BME280;70395;51.382;7.074;2023-10-19T11:10:44;98148.97;;;26.22;43.61
80938;BME280;70395;51.382;7.074;2023-10-19T11:13:14;98149.25;;;26.06;43.46
80938;BME280;70395;51.382;7.074;2023-10-19T11:15:49;98154.81;;;25.86;43.90
80938;BME280;70395;51.382;7.074;2023-10-19T11:18:37;98154.63;;;25.63;44.40
80938;BME280;70395;51.382;7.074;2023-10-19T11:21:10;98151.00;;;25.29;44.31
80938;BME280;70395;51.382;7.074;2023-10-19T11:26:07;98141.84;;;24.51;45.74
80938;BME280;70395;51.382;7.074;2023-10-19T11:28:34;98134.28;;;24.18;45.82
80938;BME280;70395;51.382;7.074;2023-10-19T11:31:21;98126.13;;;23.83;47.08
80938;BME280;70395;51.382;7.074;2023-10-19T11:33:50;98120.22;;;23.71;47.68
80938;BME280;70395;51.382;7.074;2023-10-19T11:36:18;98115.34;;;23.92;47.09
80938;BME280;70395;51.382;7.074;2023-10-19T11:38:48;98114.38;;;24.07;46.33
80938;BME280;70395;51.382;7.074;2023-10-19T11:41:15;98107.56;;;24.05;46.22
80938;BME280;70395;51.382;7.074;2023-10-19T11:43:44;98104.53;;;24.06;46.92
80938;BME280;70395;51.382;7.074;2023-10-19T11:46:11;98102.03;;;24.10;46.91
80938;BME280;70395;51.382;7.074;2023-10-19T11:48:51;98091.63;;;24.12;46.32
80938;BME280;70395;51.382;7.074;2023-10-19T11:51:17;98093.25;;;24.13;46.97
80938;BME280;70395;51.382;7.074;2023-10-19T11:53:43;98091.91;;;24.11;47.19
80938;BME280;70395;51.382;7.074;2023-10-19T11:56:11;98086.59;;;24.19;46.80
80938;BME280;70395;51.382;7.074;2023-10-19T11:58:41;98089.84;;;24.27;46.76
80938;BME280;70395;51.382;7.074;2023-10-19T12:01:09;98089.59;;;24.23;46.65
80938;BME280;70395;51.382;7.074;2023-10-19T12:03:38;98089.13;;;24.16;46.76
80938;BME280;70395;51.382;7.074;2023-10-19T12:06:09;98074.22;;;24.03;47.20
80938;BME280;70395;51.382;7.074;2023-10-19T12:08:37;98077.63;;;23.89;46.80
80938;BME280;70395;51.382;7.074;2023-10-19T12:11:06;98070.72;;;23.67;46.72
80938;BME280;70395;51.382;7.074;2023-10-19T12:13:43;98069.75;;;23.47;47.16
80938;BME280;70395;51.382;7.074;2023-10-19T12:16:12;98075.34;;;23.37;47.86
80938;BME280;70395;51.382;7.074;2023-10-19T12:18:42;98068.78;;;23.33;48.06
80938;BME280;70395;51.382;7.074;2023-10-19T12:21:08;98066.13;;;23.27;48.00
80938;BME280;70395;51.382;7.074;2023-10-19T12:23:42;98071.66;;;23.17;48.73
80938;BME280;70395;51.382;7.074;2023-10-19T12:26:16;98073.91;;;23.10;48.29
80938;BME280;70395;51.382;7.074;2023-10-19T12:28:43;98071.19;;;23.04;48.49
80938;BME280;70395;51.382;7.074;2023-10-19T12:31:12;98078.59;;;22.99;48.25
80938;BME280;70395;51.382;7.074;2023-10-19T12:33:38;98080.84;;;22.91;48.89
80938;BME280;70395;51.382;7.074;2023-10-19T12:36:05;98087.72;;;22.83;49.18
80938;BME280;70395;51.382;7.074;2023-10-19T12:38:50;98101.66;;;22.82;48.64
80938;BME280;70395;51.382;7.074;2023-10-19T12:41:19;98095.41;;;22.76;49.52
80938;BME280;70395;51.382;7.074;2023-10-19T12:43:45;98096.50;;;22.75;49.40
80938;BME280;70395;51.382;7.074;2023-10-19T12:46:13;98094.34;;;22.72;49.36
80938;BME280;70395;51.382;7.074;2023-10-19T12:48:40;98078.75;;;22.67;49.38
80938;BME280;70395;51.382;7.074;2023-10-19T12:51:06;98073.63;;;22.60;49.12
80938;BME280;70395;51.382;7.074;2023-10-19T12:53:37;98069.84;;;22.51;49.81
80938;BME280;70395;51.382;7.074;2023-10-19T12:56:06;98073.97;;;22.43;49.83
80938;BME280;70395;51.382;7.074;2023-10-19T12:58:33;98070.44;;;22.37;50.01
80938;BME280;70395;51.382;7.074;2023-10-19T13:01:00;98063.38;;;22.26;49.99
80938;BME280;70395;51.382;7.074;2023-10-19T13:03:26;98060.97;;;22.14;50.62
80938;BME280;70395;51.382;7.074;2023-10-19T13:05:54;98060.72;;;22.05;50.80
80938;BME280;70395;51.382;7.074;2023-10-19T13:08:19;98064.03;;;21.97;51.20
80938;BME280;70395;51.382;7.074;2023-10-19T13:10:48;98057.22;;;21.89;51.40
80938;BME280;70395;51.382;7.074;2023-10-19T13:13:15;98062.97;;;21.87;51.74
80938;BME280;70395;51.382;7.074;2023-10-19T13:15:45;98066.50;;;21.82;52.21
80938;BME280;70395;51.382;7.074;2023-10-19T13:18:13;98064.56;;;21.78;51.97
80938;BME280;70395;51.382;7.074;2023-10-19T13:20:46;98060.75;;;21.68;51.72
80938;BME280;70395;51.382;7.074;2023-10-19T13:23:14;98057.78;;;21.59;51.87
80938;BME280;70395;51.382;7.074;2023-10-19T13:25:49;98062.69;;;21.52;52.24
80938;BME280;70395;51.382;7.074;2023-10-19T13:28:18;98056.44;;;21.46;52.20
80938;BME280;70395;51.382;7.074;2023-10-19T13:30:50;98058.06;;;21.42;52.44
80938;BME280;70395;51.382;7.074;2023-10-19T13:33:17;98053.44;;;21.37;52.88
80938;BME280;70395;51.382;7.074;2023-10-19T13:35:45;98062.16;;;21.34;53.26
80938;BME280;70395;51.382;7.074;2023-10-19T13:38:12;98068.72;;;21.33;53.09